Terminal Aerodrome Forecast
Issued by NWS Spokane, WA

Home | Current Version | Previous Version | Text Only | Print | Product List | Glossary On
Versions: 1 2 3 4 5 6 7 8 9 10 11 12 13 14 15 16 17 18 19 20 21 22 23 24 25 26 27 28
000
FTUS46 KOTX 272320
TAFGEG
TAF
KGEG 272320Z 2800/2824 23012G16KT P6SM -SHRA BKN035 BKN050
     FM280300 23007KT P6SM SCT040 BKN250
     FM281000 17005KT P6SM BKN007 BKN250
     FM281600 18007KT P6SM SCT008 BKN015 OVC200
     FM282200 20010G15KT P6SM -RA BKN035 OVC120=

USA.gov is the U.S. government's official web portal to all federal, state and local government web resources and services.